createdAt,value
2022-11-14T00:01:06.031Z,4.40
2022-11-14T00:03:32.917Z,4.40
2022-11-14T00:05:59.869Z,4.40
2022-11-14T00:08:27.009Z,4.40
2022-11-14T00:10:54.177Z,4.40
2022-11-14T00:13:21.366Z,4.30
2022-11-14T00:15:55.882Z,4.20
2022-11-14T00:18:22.953Z,4.20
2022-11-14T00:20:51.309Z,4.20
2022-11-14T00:23:19.241Z,4.20
2022-11-14T00:25:46.752Z,4.10
2022-11-14T00:28:13.642Z,4.20
2022-11-14T00:30:40.527Z,4.10
2022-11-14T00:33:07.574Z,4.00
2022-11-14T00:35:34.429Z,4.00
2022-11-14T00:38:01.361Z,4.00
2022-11-14T00:40:28.205Z,4.00
2022-11-14T00:42:54.969Z,3.90
2022-11-14T00:45:21.956Z,3.90
2022-11-14T00:47:48.873Z,3.90
2022-11-14T00:50:17.075Z,3.80
2022-11-14T00:52:44.233Z,3.80
2022-11-14T00:55:11.111Z,3.80
2022-11-14T00:57:37.931Z,3.80
2022-11-14T01:00:06.665Z,3.80
2022-11-14T01:02:33.705Z,3.80
2022-11-14T01:05:00.663Z,3.80
2022-11-14T01:07:27.601Z,3.80
2022-11-14T01:09:54.413Z,3.80
2022-11-14T01:12:21.339Z,3.80
2022-11-14T01:14:48.364Z,3.80
2022-11-14T01:17:15.218Z,3.80
2022-11-14T01:19:42.078Z,3.70
2022-11-14T01:22:09.056Z,3.70
2022-11-14T01:24:35.964Z,3.70
2022-11-14T01:27:03.145Z,3.70
2022-11-14T01:29:30.157Z,3.80
2022-11-14T01:31:56.998Z,3.80
2022-11-14T01:34:24.120Z,3.80
2022-11-14T01:36:50.948Z,3.80
2022-11-14T01:39:17.840Z,3.80
2022-11-14T01:41:44.704Z,3.80
2022-11-14T01:44:38.780Z,3.90
2022-11-14T01:47:06.549Z,3.90
2022-11-14T01:49:40.024Z,3.90
2022-11-14T01:52:12.088Z,3.90
2022-11-14T01:54:45.081Z,3.90
2022-11-14T01:57:14.703Z,3.90
2022-11-14T01:59:44.852Z,3.80
2022-11-14T02:02:21.713Z,3.80
2022-11-14T02:05:00.873Z,3.90
2022-11-14T02:07:30.088Z,3.90
2022-11-14T02:09:57.401Z,3.90
2022-11-14T02:12:24.398Z,3.90
2022-11-14T02:14:54.742Z,3.90
2022-11-14T02:17:29.695Z,3.90
2022-11-14T02:20:06.094Z,3.90
2022-11-14T02:22:32.939Z,3.90
2022-11-14T02:24:59.934Z,3.90
2022-11-14T02:27:26.998Z,3.90
2022-11-14T02:29:53.823Z,3.90
2022-11-14T02:32:20.712Z,3.90
2022-11-14T02:34:47.656Z,3.80
2022-11-14T02:37:14.507Z,3.80
2022-11-14T02:39:41.451Z,3.80
2022-11-14T02:42:08.303Z,3.80
2022-11-14T02:44:35.189Z,3.70
2022-11-14T02:47:02.070Z,3.70
2022-11-14T02:49:28.927Z,3.70
2022-11-14T02:51:55.740Z,3.70
2022-11-14T02:54:22.565Z,3.70
2022-11-14T02:56:49.406Z,3.70
2022-11-14T02:59:16.205Z,3.60
2022-11-14T03:01:43.077Z,3.60
2022-11-14T03:04:10.038Z,3.60
2022-11-14T03:06:37.092Z,3.60
2022-11-14T03:09:04.186Z,3.60
2022-11-14T03:11:31.300Z,3.60
2022-11-14T03:14:00.215Z,3.60
2022-11-14T03:16:27.268Z,3.60
2022-11-14T03:18:54.073Z,3.60
2022-11-14T03:21:23.513Z,3.50
2022-11-14T03:23:50.340Z,3.40
2022-11-14T03:26:17.211Z,3.40
2022-11-14T03:28:44.064Z,3.40
2022-11-14T03:31:12.571Z,3.40
2022-11-14T03:33:39.796Z,3.40
2022-11-14T03:36:07.750Z,3.40
2022-11-14T03:38:34.586Z,3.40
2022-11-14T03:41:01.731Z,3.40
2022-11-14T03:43:33.287Z,3.40
2022-11-14T03:46:01.223Z,3.40
2022-11-14T03:48:29.269Z,3.30
2022-11-14T03:50:56.651Z,3.30
2022-11-14T03:53:23.940Z,3.30
2022-11-14T03:55:51.993Z,3.30
2022-11-14T03:58:18.880Z,3.30
2022-11-14T04:00:45.773Z,3.20
2022-11-14T04:03:12.748Z,3.20
2022-11-14T04:05:39.691Z,3.30
2022-11-14T04:08:07.386Z,3.30
2022-11-14T04:10:34.272Z,3.30
2022-11-14T04:13:01.108Z,3.30
2022-11-14T04:15:27.961Z,3.30
2022-11-14T04:17:54.768Z,3.30
2022-11-14T04:20:21.671Z,3.30
2022-11-14T04:22:48.533Z,3.40
2022-11-14T04:25:15.875Z,3.40
2022-11-14T04:27:43.495Z,3.40
2022-11-14T04:30:10.958Z,3.30
2022-11-14T04:32:37.804Z,3.30
2022-11-14T04:35:05.057Z,3.30
2022-11-14T04:37:31.892Z,3.30
2022-11-14T04:40:00.939Z,3.30
2022-11-14T04:42:27.853Z,3.30
2022-11-14T04:44:54.832Z,3.30
2022-11-14T04:47:21.786Z,3.30
2022-11-14T04:49:48.634Z,3.30
2022-11-14T04:52:15.446Z,3.30
2022-11-14T04:54:42.316Z,3.20
2022-11-14T04:57:09.115Z,3.20
2022-11-14T04:59:36.008Z,3.20
2022-11-14T05:02:02.849Z,3.10
2022-11-14T05:04:29.691Z,3.00
2022-11-14T05:06:56.556Z,3.00
2022-11-14T05:09:23.455Z,3.00
2022-11-14T05:11:50.331Z,2.90
2022-11-14T05:14:17.215Z,2.90
2022-11-14T05:16:44.011Z,2.90
2022-11-14T05:19:10.862Z,2.80
2022-11-14T05:21:37.751Z,2.80
2022-11-14T05:24:04.884Z,2.80
2022-11-14T05:26:31.754Z,2.80
2022-11-14T05:28:58.620Z,2.80
2022-11-14T05:31:25.437Z,2.70
2022-11-14T05:33:52.603Z,2.80
2022-11-14T05:36:19.587Z,2.70
2022-11-14T05:38:46.416Z,2.70
2022-11-14T05:41:15.690Z,2.70
2022-11-14T05:43:42.927Z,2.70
2022-11-14T05:46:15.835Z,2.60
2022-11-14T05:48:43.201Z,2.50
2022-11-14T05:51:13.920Z,2.50
2022-11-14T05:53:41.671Z,2.50
2022-11-14T05:56:11.710Z,2.40
2022-11-14T05:58:39.361Z,2.40
2022-11-14T06:01:15.261Z,2.40
2022-11-14T06:03:44.416Z,2.30
2022-11-14T06:06:14.664Z,2.30
2022-11-14T06:08:42.037Z,2.30
2022-11-14T06:11:17.777Z,2.30
2022-11-14T06:13:45.514Z,2.30
2022-11-14T06:16:19.805Z,2.30
2022-11-14T06:18:46.995Z,2.30
2022-11-14T06:21:16.456Z,2.30
2022-11-14T06:23:43.578Z,2.30
2022-11-14T06:26:30.864Z,2.30
2022-11-14T06:28:59.003Z,2.30
2022-11-14T06:31:27.029Z,2.40
2022-11-14T06:33:53.967Z,2.40
2022-11-14T06:36:20.868Z,2.30
2022-11-14T06:38:47.753Z,2.40
2022-11-14T06:41:17.068Z,2.30
2022-11-14T06:43:52.979Z,2.30
2022-11-14T06:46:21.961Z,2.30
2022-11-14T06:48:49.946Z,2.30
2022-11-14T06:51:17.530Z,2.30
2022-11-14T06:53:44.750Z,2.20
2022-11-14T06:56:13.651Z,2.20
2022-11-14T06:58:43.441Z,2.20
2022-11-14T07:01:28.377Z,2.20
2022-11-14T07:03:56.209Z,2.20
2022-11-14T07:06:26.405Z,2.20
2022-11-14T07:08:54.247Z,2.20
2022-11-14T07:11:29.447Z,2.20
2022-11-14T07:14:00.656Z,2.20
2022-11-14T07:16:30.098Z,2.20
2022-11-14T07:18:58.283Z,2.20
2022-11-14T07:21:26.662Z,2.20
2022-11-14T07:23:53.779Z,2.20
2022-11-14T07:26:20.670Z,2.20
2022-11-14T07:28:52.278Z,2.30
2022-11-14T07:31:21.643Z,2.30
2022-11-14T07:33:49.121Z,2.40
2022-11-14T07:36:17.039Z,2.40
2022-11-14T07:38:44.000Z,2.50
2022-11-14T07:41:15.712Z,2.60
2022-11-14T07:43:43.052Z,2.60
2022-11-14T07:46:15.651Z,2.70
2022-11-14T07:48:42.861Z,2.80
2022-11-14T07:51:15.300Z,2.80
2022-11-14T07:53:42.224Z,2.90
2022-11-14T07:56:10.170Z,2.90
2022-11-14T07:58:41.265Z,3.00
2022-11-14T08:01:10.767Z,3.00
2022-11-14T08:03:42.280Z,3.00
2022-11-14T08:06:14.815Z,3.10
2022-11-14T08:08:41.937Z,3.20
2022-11-14T08:11:09.060Z,3.30
2022-11-14T08:13:36.041Z,3.30
2022-11-14T08:16:12.387Z,3.30
2022-11-14T08:18:40.774Z,3.40
2022-11-14T08:21:07.899Z,3.40
2022-11-14T08:23:34.784Z,3.40
2022-11-14T08:26:01.662Z,3.40
2022-11-14T08:28:28.846Z,3.50
2022-11-14T08:31:01.309Z,3.50
2022-11-14T08:33:28.151Z,3.50
2022-11-14T08:35:54.979Z,3.70
2022-11-14T08:38:21.772Z,3.80
2022-11-14T08:40:48.574Z,3.80
2022-11-14T08:43:15.420Z,3.80
2022-11-14T08:45:42.281Z,3.80
2022-11-14T08:48:10.061Z,3.90
2022-11-14T08:50:36.902Z,4.00
2022-11-14T08:53:03.744Z,4.10
2022-11-14T08:55:30.563Z,4.20
2022-11-14T08:57:57.407Z,4.40
2022-11-14T09:00:24.673Z,4.50
2022-11-14T09:02:51.629Z,4.50
2022-11-14T09:05:18.590Z,4.50
2022-11-14T09:07:45.395Z,4.50
2022-11-14T09:10:12.234Z,4.60
2022-11-14T09:12:39.072Z,4.60
2022-11-14T09:15:06.731Z,4.70
2022-11-14T09:17:33.710Z,4.60
2022-11-14T09:20:00.544Z,4.60
2022-11-14T09:22:27.322Z,4.60
2022-11-14T09:24:54.218Z,4.60
2022-11-14T09:27:20.999Z,4.60
2022-11-14T09:29:47.834Z,4.80
2022-11-14T09:32:14.658Z,4.70
2022-11-14T09:34:44.887Z,4.90
2022-11-14T09:37:11.948Z,4.90
2022-11-14T09:39:40.784Z,5.10
2022-11-14T09:42:17.129Z,5.20
2022-11-14T09:45:04.546Z,5.30
2022-11-14T09:47:39.084Z,5.10
2022-11-14T09:50:16.407Z,5.10
2022-11-14T09:52:54.205Z,5.00
2022-11-14T09:55:36.861Z,5.10
2022-11-14T09:58:05.267Z,5.40
2022-11-14T10:00:53.196Z,5.40
2022-11-14T10:03:28.176Z,5.30
2022-11-14T10:06:31.787Z,5.20
2022-11-14T10:09:30.781Z,5.50
2022-11-14T10:12:34.969Z,5.50
2022-11-14T10:15:09.106Z,5.60
2022-11-14T10:17:44.910Z,5.70
2022-11-14T10:20:36.970Z,5.70
2022-11-14T10:23:03.880Z,5.80
2022-11-14T10:25:50.956Z,6.00
2022-11-14T10:28:29.298Z,6.20
2022-11-14T10:30:59.293Z,6.20
2022-11-14T10:33:46.727Z,6.20
2022-11-14T10:36:56.613Z,6.40
2022-11-14T10:39:55.769Z,6.70
2022-11-14T10:42:26.514Z,7.10
2022-11-14T10:45:18.987Z,7.10
2022-11-14T10:47:54.796Z,7.20
2022-11-14T10:50:39.766Z,7.20
2022-11-14T10:53:32.799Z,7.10
2022-11-14T10:56:04.588Z,6.90
2022-11-14T10:58:42.021Z,6.90
2022-11-14T11:01:37.339Z,6.90
2022-11-14T11:04:28.603Z,7.00
2022-11-14T11:07:09.649Z,7.10
2022-11-14T11:09:56.933Z,7.20
2022-11-14T11:12:36.738Z,7.20
2022-11-14T11:15:20.740Z,7.30
2022-11-14T11:18:02.736Z,7.40
2022-11-14T11:20:31.419Z,7.50
2022-11-14T11:23:10.615Z,7.60
2022-11-14T11:25:39.722Z,7.80
2022-11-14T11:28:14.213Z,7.80
2022-11-14T11:30:59.454Z,7.90
2022-11-14T11:33:32.031Z,8.00
2022-11-14T11:36:18.383Z,8.10
2022-11-14T11:38:46.147Z,8.30
2022-11-14T11:42:06.165Z,8.30
2022-11-14T11:44:19.328Z,8.50
2022-11-14T11:46:55.426Z,8.60
2022-11-14T11:49:57.645Z,8.70
2022-11-14T11:52:32.188Z,8.80
2022-11-14T11:55:05.522Z,8.90
2022-11-14T11:57:56.061Z,9.10
2022-11-14T12:00:23.623Z,9.30
2022-11-14T12:02:52.763Z,9.50
2022-11-14T12:05:44.667Z,9.70
2022-11-14T12:08:20.047Z,9.90
2022-11-14T12:10:49.065Z,10.00
2022-11-14T12:13:22.026Z,10.00
2022-11-14T12:15:54.772Z,10.10
2022-11-14T12:18:44.044Z,10.00
2022-11-14T12:21:42.226Z,10.00
2022-11-14T12:24:33.913Z,10.10
2022-11-14T12:27:21.799Z,10.20
2022-11-14T12:30:07.982Z,10.20
2022-11-14T12:32:45.529Z,10.30
2022-11-14T12:35:48.200Z,10.30
2022-11-14T12:38:19.514Z,10.30
2022-11-14T12:40:53.972Z,10.30
2022-11-14T12:43:37.678Z,10.30
2022-11-14T12:46:11.688Z,10.30
2022-11-14T12:48:43.330Z,10.30
2022-11-14T12:51:25.649Z,10.30
2022-11-14T12:53:57.186Z,10.30
2022-11-14T12:56:53.780Z,10.20
2022-11-14T12:59:59.605Z,10.20
2022-11-14T13:02:49.344Z,10.20
2022-11-14T13:05:46.795Z,10.20
2022-11-14T13:08:44.152Z,10.20
2022-11-14T13:11:53.939Z,10.40
2022-11-14T13:14:39.885Z,10.40
2022-11-14T13:17:32.363Z,10.60
2022-11-14T13:20:17.642Z,10.70
2022-11-14T13:22:46.602Z,10.80
2022-11-14T13:25:21.562Z,10.80
2022-11-14T13:31:06.958Z,10.80
2022-11-14T13:33:58.965Z,10.90
2022-11-14T13:36:47.346Z,10.90
2022-11-14T13:39:40.044Z,10.80
2022-11-14T13:42:18.290Z,10.80
2022-11-14T13:44:57.147Z,10.80
2022-11-14T13:47:47.171Z,10.90
2022-11-14T13:50:17.201Z,10.90
2022-11-14T13:52:47.139Z,10.90
2022-11-14T13:55:47.624Z,10.80
2022-11-14T13:58:38.826Z,10.80
2022-11-14T14:01:19.183Z,10.90
2022-11-14T14:03:55.900Z,10.80
2022-11-14T14:06:48.717Z,10.80
2022-11-14T14:09:18.598Z,10.80
2022-11-14T14:12:03.626Z,10.80
2022-11-14T14:14:55.105Z,10.70
2022-11-14T14:17:44.157Z,10.70
2022-11-14T14:20:43.591Z,10.70
2022-11-14T14:23:13.945Z,10.60
2022-11-14T14:26:13.077Z,10.60
2022-11-14T14:29:05.957Z,10.60
2022-11-14T14:31:37.884Z,10.50
2022-11-14T14:34:30.760Z,10.50
2022-11-14T14:36:58.376Z,10.40
2022-11-14T14:39:27.788Z,10.40
2022-11-14T14:41:57.595Z,10.40
2022-11-14T14:44:29.890Z,10.30
2022-11-14T14:46:56.896Z,10.20
2022-11-14T14:49:35.129Z,10.30
2022-11-14T14:52:01.917Z,10.20
2022-11-14T14:54:29.858Z,10.20
2022-11-14T14:57:03.439Z,10.20
2022-11-14T14:59:31.124Z,10.10
2022-11-14T15:01:58.795Z,10.10
2022-11-14T15:04:28.801Z,10.00
2022-11-14T15:06:57.451Z,10.00
2022-11-14T15:09:32.336Z,9.90
2022-11-14T15:12:01.395Z,10.00
2022-11-14T15:14:32.057Z,9.90
2022-11-14T15:17:00.124Z,9.90
2022-11-14T15:19:40.558Z,9.90
2022-11-14T15:22:16.437Z,9.90
2022-11-14T15:24:43.477Z,9.90
2022-11-14T15:27:18.007Z,9.90
2022-11-14T15:29:51.316Z,9.90
2022-11-14T15:32:20.301Z,9.80
2022-11-14T15:35:08.788Z,9.80
2022-11-14T15:37:35.640Z,9.70
2022-11-14T15:40:20.741Z,9.70
2022-11-14T15:42:47.631Z,9.70
2022-11-14T15:45:22.667Z,9.60
2022-11-14T15:48:03.386Z,9.60
2022-11-14T15:50:32.824Z,9.50
2022-11-14T15:53:04.056Z,9.50
2022-11-14T15:55:30.931Z,9.50
2022-11-14T15:58:26.102Z,9.50
2022-11-14T16:00:53.334Z,9.50
2022-11-14T16:03:22.945Z,9.50
2022-11-14T16:05:49.734Z,9.50
2022-11-14T16:08:16.693Z,9.40
2022-11-14T16:10:43.565Z,9.40
2022-11-14T16:13:11.259Z,9.30
2022-11-14T16:15:38.082Z,9.30
2022-11-14T16:18:06.039Z,9.20
2022-11-14T16:20:37.948Z,9.10
2022-11-14T16:23:05.826Z,9.00
2022-11-14T16:25:33.394Z,8.80
2022-11-14T16:28:00.293Z,8.80
2022-11-14T16:30:27.184Z,8.70
2022-11-14T16:32:54.076Z,8.60
2022-11-14T16:35:25.874Z,8.50
2022-11-14T16:37:55.557Z,8.40
2022-11-14T16:40:26.922Z,8.40
2022-11-14T16:42:59.225Z,8.30
2022-11-14T16:45:27.779Z,8.20
2022-11-14T16:47:54.703Z,8.10
2022-11-14T16:50:21.574Z,8.00
2022-11-14T16:52:48.481Z,7.90
2022-11-14T16:55:15.434Z,7.80
2022-11-14T16:57:42.380Z,7.80
2022-11-14T17:00:12.438Z,7.70
2022-11-14T17:02:42.881Z,7.60
2022-11-14T17:05:09.741Z,7.50
2022-11-14T17:07:36.559Z,7.40
2022-11-14T17:10:04.179Z,7.30
2022-11-14T17:12:32.366Z,7.20
2022-11-14T17:14:59.493Z,7.20
2022-11-14T17:17:26.376Z,7.20
2022-11-14T17:19:53.243Z,7.10
2022-11-14T17:22:20.172Z,7.00
2022-11-14T17:24:47.124Z,7.00
2022-11-14T17:27:14.035Z,6.90
2022-11-14T17:29:40.930Z,6.80
2022-11-14T17:32:07.725Z,6.80
2022-11-14T17:34:34.788Z,6.80
2022-11-14T17:37:01.610Z,6.70
2022-11-14T17:39:28.651Z,6.70
2022-11-14T17:41:55.506Z,6.70
2022-11-14T17:44:22.348Z,6.70
2022-11-14T17:46:49.291Z,6.70
2022-11-14T17:49:16.178Z,6.70
2022-11-14T17:51:42.985Z,6.60
2022-11-14T17:54:09.916Z,6.60
2022-11-14T17:56:41.180Z,6.50
2022-11-14T17:59:11.308Z,6.40
2022-11-14T18:01:38.174Z,6.30
2022-11-14T18:04:06.585Z,6.30
2022-11-14T18:06:34.429Z,6.20
2022-11-14T18:09:05.047Z,6.20
2022-11-14T18:11:32.119Z,6.10
2022-11-14T18:13:59.152Z,6.10
2022-11-14T18:16:44.540Z,6.00
2022-11-14T18:19:13.896Z,6.00
2022-11-14T18:21:43.256Z,6.00
2022-11-14T18:24:12.389Z,5.90
2022-11-14T18:26:39.270Z,5.90
2022-11-14T18:29:06.213Z,5.80
2022-11-14T18:31:32.987Z,5.80
2022-11-14T18:33:59.969Z,5.90
2022-11-14T18:36:26.821Z,5.80
2022-11-14T18:38:55.223Z,5.80
2022-11-14T18:41:22.298Z,5.80
2022-11-14T18:43:49.657Z,5.80
2022-11-14T18:46:18.578Z,5.70
2022-11-14T18:48:47.785Z,5.70
2022-11-14T18:51:17.598Z,5.70
2022-11-14T18:53:44.836Z,5.70
2022-11-14T18:56:17.937Z,5.60
2022-11-14T18:58:45.490Z,5.60
2022-11-14T19:01:24.153Z,5.60
2022-11-14T19:04:01.970Z,5.60
2022-11-14T19:06:31.252Z,5.70
2022-11-14T19:09:06.877Z,5.60
2022-11-14T19:11:55.004Z,5.70
2022-11-14T19:14:22.224Z,5.60
2022-11-14T19:16:49.144Z,5.60
2022-11-14T19:19:16.166Z,5.60
2022-11-14T19:21:43.670Z,5.60
2022-11-14T19:24:10.837Z,5.50
2022-11-14T19:26:37.799Z,5.50
2022-11-14T19:29:07.296Z,5.50
2022-11-14T19:31:34.221Z,5.50
2022-11-14T19:34:01.373Z,5.50
2022-11-14T19:36:53.154Z,5.40
2022-11-14T19:39:15.319Z,5.40
2022-11-14T19:41:42.117Z,5.40
2022-11-14T19:44:09.106Z,5.40
2022-11-14T19:46:36.875Z,5.40
2022-11-14T19:49:04.889Z,5.30
2022-11-14T19:51:33.002Z,5.30
2022-11-14T19:54:01.781Z,5.30
2022-11-14T19:56:29.009Z,5.20
2022-11-14T19:58:56.822Z,5.20
2022-11-14T20:01:28.008Z,5.20
2022-11-14T20:03:57.373Z,5.10
2022-11-14T20:06:26.820Z,5.00
2022-11-14T20:08:54.829Z,5.00
2022-11-14T20:11:22.765Z,4.90
2022-11-14T20:13:49.926Z,4.80
2022-11-14T20:16:28.332Z,4.70
2022-11-14T20:18:59.007Z,4.70
2022-11-14T20:21:28.031Z,4.60
2022-11-14T20:23:54.875Z,4.60
2022-11-14T20:26:22.219Z,4.50
2022-11-14T20:28:52.120Z,4.50
2022-11-14T20:31:22.092Z,4.50
2022-11-14T20:33:50.836Z,4.40
2022-11-14T20:36:20.724Z,4.40
2022-11-14T20:38:48.095Z,4.40
2022-11-14T20:41:15.401Z,4.40
2022-11-14T20:43:45.639Z,4.40
2022-11-14T20:46:15.680Z,4.40
2022-11-14T20:48:43.391Z,4.40
2022-11-14T20:51:23.227Z,4.40
2022-11-14T20:53:51.455Z,4.30
2022-11-14T20:56:19.516Z,4.30
2022-11-14T20:58:48.554Z,4.20
2022-11-14T21:01:16.129Z,4.20
2022-11-14T21:03:43.005Z,4.10
2022-11-14T21:06:12.535Z,4.10
2022-11-14T21:08:40.289Z,4.10
2022-11-14T21:11:10.760Z,4.10
2022-11-14T21:13:58.711Z,4.00
2022-11-14T21:16:37.462Z,4.10
2022-11-14T21:19:05.683Z,4.00
2022-11-14T21:21:37.550Z,4.00
2022-11-14T21:24:05.159Z,4.00
2022-11-14T21:26:34.117Z,3.90
2022-11-14T21:29:10.242Z,3.90
2022-11-14T21:31:39.632Z,3.90
2022-11-14T21:34:17.881Z,3.90
2022-11-14T21:36:46.419Z,3.90
2022-11-14T21:39:15.845Z,3.80
2022-11-14T21:41:44.477Z,3.70
2022-11-14T21:44:13.691Z,3.70
2022-11-14T21:46:40.915Z,3.70
2022-11-14T21:49:08.163Z,3.60
2022-11-14T21:51:34.983Z,3.60
2022-11-14T21:54:02.900Z,3.60
2022-11-14T21:56:31.912Z,3.60
2022-11-14T21:59:21.567Z,3.50
2022-11-14T22:02:08.483Z,3.50
2022-11-14T22:04:36.511Z,3.40
2022-11-14T22:07:05.988Z,3.40
2022-11-14T22:09:33.685Z,3.40
2022-11-14T22:12:01.163Z,3.40
2022-11-14T22:14:29.586Z,3.40
2022-11-14T22:16:56.687Z,3.40
2022-11-14T22:19:24.411Z,3.40
2022-11-14T22:21:51.210Z,3.40
2022-11-14T22:24:18.061Z,3.40
2022-11-14T22:26:44.906Z,3.40
2022-11-14T22:29:12.068Z,3.40
2022-11-14T22:31:38.920Z,3.40
2022-11-14T22:34:06.211Z,3.40
2022-11-14T22:36:33.961Z,3.50
2022-11-14T22:39:01.002Z,3.50
2022-11-14T22:41:32.743Z,3.50
2022-11-14T22:44:00.478Z,3.50
2022-11-14T22:46:27.673Z,3.40
2022-11-14T22:48:55.147Z,3.40
2022-11-14T22:51:24.417Z,3.40
2022-11-14T22:53:53.185Z,3.30
2022-11-14T22:56:21.846Z,3.30
2022-11-14T22:58:49.164Z,3.20
2022-11-14T23:01:31.446Z,3.20
2022-11-14T23:03:59.508Z,3.20
2022-11-14T23:06:27.326Z,3.10
2022-11-14T23:08:55.005Z,3.10
2022-11-14T23:11:24.581Z,3.10
2022-11-14T23:13:53.589Z,3.10
2022-11-14T23:16:22.782Z,3.10
2022-11-14T23:18:50.598Z,3.10
2022-11-14T23:21:24.169Z,3.10
2022-11-14T23:23:55.976Z,3.10
2022-11-14T23:26:24.267Z,3.10
2022-11-14T23:28:51.466Z,3.10
2022-11-14T23:31:19.248Z,3.00
2022-11-14T23:33:51.179Z,3.00
2022-11-14T23:36:18.260Z,3.00
2022-11-14T23:38:45.393Z,3.00
2022-11-14T23:41:20.839Z,2.90
2022-11-14T23:43:47.974Z,2.80
2022-11-14T23:46:15.509Z,2.70
2022-11-14T23:48:42.802Z,2.70
2022-11-14T23:51:10.016Z,2.70
2022-11-14T23:53:37.205Z,2.70
2022-11-14T23:56:04.146Z,2.70
2022-11-14T23:58:31.138Z,2.60
